EGPF/GLA METAR and TAF weather

Enter ICAO airport designator
Station Type Date Time Source
EGPF METAR 2019/10/19 07:20 UTC NOAA

EGPF 190720Z AUTO 33005KT 9999 BKN034 OVC045 10/07 Q0998


Station Type Date Time Source
EGPF Decoded METAR 2019/10/19 07:20 UTC NOAA

Glasgow Airport, United Kingdom (EGPF) 55-52N 004-26W 0M
Oct 19, 2019 - 03:20 AM EDT / 2019.10.19 0720 UTC
Wind: from the NNW (330 degrees) at 6 MPH (5 KT):0
Visibility: greater than 7 mile(s):0
Sky conditions: overcast
Temperature: 50 F (10 C)
Dew Point: 44 F (7 C)
Relative Humidity: 81%
Pressure (altimeter): 29.47 in. Hg (0998 hPa)
ob: EGPF 190720Z AUTO 33005KT 9999 BKN034 OVC045 10/07 Q0998
cycle: 7

Station Type Date Time Source
EGPF TAF 2019/10/19 06:09 UTC NOAA

TAF EGPF 190456Z 1906/2006 01007KT 9999 SCT030
TEMPO 1906/1910 4000 RA BKN013 PROB30
TEMPO 1906/1912 02015G25KT PROB30
TEMPO 1906/1907 BKN008

Example: see airport list